Arkabutla, MS

3:06 PM CST on February 14, 2016 (GMT -0600)
NWCC - RC Pugh Library | | Change Station
CLOSE
Current Station
Personal Weather Station
Location: Senatobia, MS
Elevation: 289 ft
Nearby Weather Stations

Elev 289 ft 34.63 °N, 89.97 °W | Updated 2 seconds ago

Overcast
Overcast
54.5 °F
Feels Like 54.5 °F
N
8.9
Wind Variable Wind from SSE
Gusts 9.8 mph

Today
High -- | Low -- °F
--% Chance of Precip.
Yesterday
High -- | Low -- °F
Precip. -- in
Pressure 29.98 in
Visibility 10.0 miles
Clouds Scattered Clouds 3100 ft
Mostly Cloudy 7500 ft
Dew Point 28 °F
Humidity 35%
Rainfall 0.00 in
Snow Depth Not available.
6:47 AM 5:41 PM
Waxing Crescent, 45% visible
METAR KUTA 142055Z AUTO 19015G19KT 10SM SCT031 BKN075 12/M01 A2998 RMK AO2 TSNO
Pressure 29.98 in
Visibility 10.0 miles
Clouds Scattered Clouds 3100 ft
Mostly Cloudy 7500 ft
Dew Point 28 °F
Humidity 35%
Rainfall 0.00 in
Snow Depth Not available.
6:47 AM 5:41 PM
Waxing Crescent, 45% visible
METAR KUTA 142055Z AUTO 19015G19KT 10SM SCT031 BKN075 12/M01 A2998 RMK AO2 TSNO

10-Day Weather Forecast

Almanac

Astronomy

Feb. 14, 2016 Rise Set
Actual Time
Civil Twilight
Nautical Twilight
Astronomical Twilight
Moon
Length of Visible Light
Length of Day
Tomorrow will be .
, % of the Moon is Illuminated

Today's Extremes

State Highs State Lows

Community

WunderPhotos

Upload Photos

1,892,885 photos uploaded!

WunderBlog® & News

Nearby

Air Quality

  Air Quality AQ Index Pollutant
Not available.

Snow Depth

Station Depth Elevation

Earthquake Activity

City Distance Mag. Time & Date
Minimum magnitude displayed is 2.5.

Coastal Water Temperatures

Place Temperature

Stations

Nearby Weather Stations

Station Location Temp. Windchill Dew Point Humidity Wind Precip. Elev Updated Type
                   

Watches & Warnings

There are currently no watches in effect.